Pagrindinis puslapis
METAR-TAF:

METAR-TAF

Oro uostai :

Ahvazas, Iranas

platuma: 31-20N, ilguma: 048-40E, Aukštis: 20 m

Dabartinis oras

Ataskaita buvo paskelbta 38 minutes, ne 13:00 UTC
Vėjas 4 kt iš Pietų
Temperatūra 38°C
Drėgmė 17%
Slėgis 1005 hPa
Matomumas 10 km arba daugiau
nėra debesų žemiau 1500 m ir nėra kamuolinių lietaus debesų

METAR: OIAW 201300Z 18004KT CAVOK 38/09 Q1005 NOSIG

Laikas: 18:08 (13:38 UTC)

Prognozė

Ataskaita buvo paskelbta 2 valandos ir 38 minutes, ne 11:00 UTC
Prognozė galioja nuo 20 metu 12 UTC su 21 metu 18 UTC
Vėjas 6 kt iš Pietų/Pietvakarių
Matomumas 10 km arba daugiau
nėra debesų žemiau 1500 m ir nėra kamuolinių lietaus debesų
Laikinai
nuo 21 metu 01 UTC su 21 metu 06 UTC
Matomumas: 5000 m
migla
Tapsmas
nuo 21 metu 08 UTC su 21 metu 10 UTC
Vėjas 8 kt iš Pietryčių

TAF: OIAW 201100Z 2012/2118 20006KT CAVOK TEMPO 2101/2106 5000 HZ BECMG 2108/2110 14008KT

Orai ataskaitas ir orų prognozės (METAR, TAF).

turimą stotys yra geltonos ir raudonos taškus žemėlapyje.

Perkelti pele per norėdami pamatyti stoties vardą.

Tada spustelėkite, norėdami matyti oro stebėjimo ir prognozės.

Norėdami pakeisti žemėlapį: spustelėkite ant žalios mygtukų su juodo kryžiaus žemyn,; žalią mygtuką su brūkšneliu, jei norite nutolinti; arba žalių rodyklių gretimoms žemėlapius.


METAR-TAF: